createdAt,value
2022-09-10T00:03:26.615Z,98020.84
2022-09-10T00:08:34.410Z,98026.66
2022-09-10T00:13:40.741Z,98024.56
2022-09-10T00:18:45.693Z,98024.56
2022-09-10T00:23:53.172Z,98026.66
2022-09-10T00:28:59.911Z,98016.38
2022-09-10T00:34:06.100Z,98023.41
2022-09-10T00:39:15.146Z,98024.38
2022-09-10T00:44:51.248Z,98021.97
2022-09-10T00:50:00.116Z,98022.53
2022-09-10T00:55:08.482Z,98019.63
2022-09-10T01:00:15.751Z,98026.72
2022-09-10T01:05:22.340Z,98023.78
2022-09-10T01:10:34.567Z,98011.72
2022-09-10T01:15:49.303Z,98010.84
2022-09-10T01:21:19.853Z,98006.31
2022-09-10T01:26:47.744Z,98017.50
2022-09-10T01:32:01.553Z,98020.78
2022-09-10T01:37:11.358Z,98025.38
2022-09-10T01:42:16.158Z,98022.34
2022-09-10T01:47:34.046Z,98028.56
2022-09-10T01:52:49.409Z,98032.50
2022-09-10T01:58:01.466Z,98030.16
2022-09-10T02:03:21.056Z,98033.06
2022-09-10T02:08:31.372Z,98027.88
2022-09-10T02:13:39.173Z,98023.03
2022-09-10T02:19:09.535Z,98024.22
2022-09-10T02:24:15.749Z,98023.75
2022-09-10T02:29:20.517Z,98025.63
2022-09-10T02:34:27.511Z,98025.63
2022-09-10T02:39:33.166Z,98030.19
2022-09-10T02:44:37.835Z,98026.66
2022-09-10T02:49:45.884Z,98034.94
2022-09-10T02:54:51.427Z,98042.03
2022-09-10T02:59:56.854Z,98049.13
2022-09-10T03:05:04.939Z,98039.63
2022-09-10T03:10:11.557Z,98034.66
2022-09-10T03:15:16.115Z,98042.22
2022-09-10T03:20:25.408Z,98033.91
2022-09-10T03:25:37.490Z,98035.50
2022-09-10T03:30:43.970Z,98024.88
2022-09-10T03:35:52.649Z,98027.78
2022-09-10T03:40:58.183Z,98031.69
2022-09-10T03:46:02.838Z,98037.94
2022-09-10T03:51:10.987Z,98038.59
2022-09-10T03:56:20.099Z,98045.28
2022-09-10T04:01:25.546Z,98043.59
2022-09-10T04:06:33.096Z,98034.22
2022-09-10T04:11:37.852Z,98036.72
2022-09-10T04:16:42.924Z,98030.66
2022-09-10T04:21:53.750Z,98024.22
2022-09-10T04:26:59.124Z,98028.97
2022-09-10T04:32:03.940Z,98034.94
2022-09-10T04:37:17.400Z,98039.16
2022-09-10T04:42:24.344Z,98029.16
2022-09-10T04:47:30.545Z,98023.75
2022-09-10T04:52:37.797Z,98023.75
2022-09-10T04:57:42.353Z,98025.34
2022-09-10T05:02:47.742Z,98034.03
2022-09-10T05:07:55.845Z,98032.63
2022-09-10T05:13:00.392Z,98033.25
2022-09-10T05:18:07.405Z,98033.56
2022-09-10T05:23:17.702Z,98023.41
2022-09-10T05:28:23.103Z,98039.25
2022-09-10T05:33:28.165Z,98033.00
2022-09-10T05:38:39.719Z,98032.88
2022-09-10T05:43:45.669Z,98034.31
2022-09-10T05:48:50.941Z,98038.22
2022-09-10T05:54:00.317Z,98036.69
2022-09-10T05:59:10.802Z,98031.59
2022-09-10T06:04:23.120Z,98031.28
2022-09-10T06:09:31.683Z,98032.78
2022-09-10T06:14:42.195Z,98033.63
2022-09-10T06:19:47.710Z,98045.72
2022-09-10T06:24:58.473Z,98039.94
2022-09-10T06:30:03.539Z,98048.06
2022-09-10T06:35:09.698Z,98047.69
2022-09-10T06:40:23.025Z,98041.47
2022-09-10T06:45:28.260Z,98044.09
2022-09-10T06:50:55.258Z,98038.97
2022-09-10T06:56:08.446Z,98042.44
2022-09-10T07:01:15.703Z,98038.59
2022-09-10T07:06:24.767Z,98040.66
2022-09-10T07:11:41.180Z,98036.22
2022-09-10T07:16:47.868Z,98035.69
2022-09-10T07:21:53.987Z,98039.13
2022-09-10T07:27:01.950Z,98047.53
2022-09-10T07:32:08.684Z,98051.31
2022-09-10T07:37:17.357Z,98058.44
2022-09-10T07:42:26.205Z,98062.63
2022-09-10T07:47:30.945Z,98060.97
2022-09-10T07:52:36.866Z,98067.25
2022-09-10T07:57:45.637Z,98057.25
2022-09-10T08:02:50.648Z,98056.25
2022-09-10T08:08:00.227Z,98062.31
2022-09-10T08:13:10.230Z,98062.75
2022-09-10T08:18:16.307Z,98063.66
2022-09-10T08:23:20.940Z,98064.09
2022-09-10T08:28:30.150Z,98070.38
2022-09-10T08:33:35.182Z,98077.06
2022-09-10T08:38:42.377Z,98079.78
2022-09-10T08:43:57.686Z,98080.44
2022-09-10T08:49:14.986Z,98081.44
2022-09-10T08:54:25.509Z,98079.75
2022-09-10T08:59:37.061Z,98077.38
2022-09-10T09:04:47.627Z,98079.44
2022-09-10T09:09:54.561Z,98076.28
2022-09-10T09:15:14.129Z,98072.28
2022-09-10T09:20:23.132Z,98065.28
2022-09-10T09:25:35.584Z,98066.66
2022-09-10T09:30:49.742Z,98064.50
2022-09-10T09:36:00.548Z,98050.25
2022-09-10T09:41:11.704Z,98047.91
2022-09-10T09:46:21.405Z,98038.25
2022-09-10T09:51:30.795Z,98039.34
2022-09-10T09:56:42.529Z,98041.69
2022-09-10T10:01:51.975Z,98039.28
2022-09-10T10:06:59.267Z,98033.50
2022-09-10T10:12:05.854Z,98026.81
2022-09-10T10:17:42.004Z,98028.88
2022-09-10T10:22:48.565Z,98024.06
2022-09-10T10:27:54.720Z,98014.16
2022-09-10T10:33:04.298Z,98013.41
2022-09-10T10:38:26.364Z,98027.47
2022-09-10T10:43:41.796Z,98041.00
2022-09-10T10:49:04.140Z,98056.00
2022-09-10T10:54:30.727Z,98067.44
2022-09-10T10:59:53.179Z,98092.22
2022-09-10T11:05:03.039Z,98094.22
2022-09-10T11:10:19.791Z,98088.44
2022-09-10T11:15:33.506Z,98082.19
2022-09-10T11:20:45.656Z,98073.88
2022-09-10T11:25:58.036Z,98082.28
2022-09-10T11:31:09.898Z,98067.91
2022-09-10T11:36:26.243Z,98067.78
2022-09-10T11:41:33.854Z,98062.16
2022-09-10T11:46:43.489Z,98057.81
2022-09-10T11:51:51.357Z,98048.41
2022-09-10T11:57:03.805Z,98040.66
2022-09-10T12:02:27.347Z,98047.75
2022-09-10T12:07:46.088Z,98047.34
2022-09-10T12:12:53.441Z,98034.97
2022-09-10T12:18:02.189Z,98042.06
2022-09-10T12:23:09.760Z,98048.97
2022-09-10T12:28:45.501Z,98035.56
2022-09-10T12:34:13.630Z,98038.00
2022-09-10T12:39:27.438Z,98037.06
2022-09-10T12:44:46.388Z,98018.53
2022-09-10T12:49:53.159Z,98016.47
2022-09-10T12:55:10.677Z,98004.41
2022-09-10T13:00:25.869Z,98011.72
2022-09-10T13:05:34.274Z,98005.34
2022-09-10T13:10:43.653Z,98002.19
2022-09-10T13:15:53.713Z,98000.34
2022-09-10T13:20:58.761Z,97996.63
2022-09-10T13:26:52.460Z,97993.03
2022-09-10T13:32:04.872Z,97979.84
2022-09-10T13:37:37.770Z,97982.88
2022-09-10T13:43:28.581Z,97973.22
2022-09-10T13:48:44.654Z,97980.16
2022-09-10T13:53:51.239Z,97980.47
2022-09-10T13:59:03.398Z,97978.19
2022-09-10T14:04:31.953Z,97968.56
2022-09-10T14:09:37.815Z,97969.09
2022-09-10T14:14:47.855Z,97972.44
2022-09-10T14:19:58.181Z,97972.28
2022-09-10T14:25:06.182Z,97974.41
2022-09-10T14:30:32.366Z,97970.38
2022-09-10T14:35:43.067Z,97967.66
2022-09-10T14:40:50.411Z,97961.47
2022-09-10T14:45:57.896Z,97967.06
2022-09-10T14:51:17.678Z,97960.00
2022-09-10T14:56:28.621Z,97973.00
2022-09-10T15:01:35.918Z,97964.34
2022-09-10T15:06:40.782Z,97967.84
2022-09-10T15:11:52.367Z,97963.81
2022-09-10T15:16:59.289Z,97961.41
2022-09-10T15:22:03.773Z,97966.34
2022-09-10T15:27:08.752Z,97963.91
2022-09-10T15:32:16.297Z,97965.56
2022-09-10T15:37:24.624Z,97976.66
2022-09-10T15:42:29.092Z,97978.88
2022-09-10T15:47:36.335Z,97976.06
2022-09-10T15:52:41.091Z,97979.09
2022-09-10T15:57:45.574Z,97976.91
2022-09-10T16:02:56.716Z,97980.47
2022-09-10T16:08:01.202Z,97983.78
2022-09-10T16:13:05.882Z,97984.56
2022-09-10T16:18:13.281Z,97984.66
2022-09-10T16:23:17.924Z,97996.94
2022-09-10T16:28:22.416Z,98001.91
2022-09-10T16:33:29.493Z,98007.09
2022-09-10T16:38:35.034Z,98000.06
2022-09-10T16:43:39.960Z,98014.69
2022-09-10T16:48:48.033Z,98009.53
2022-09-10T16:53:58.745Z,98009.00
2022-09-10T16:59:03.358Z,98016.56
2022-09-10T17:04:10.740Z,98016.47
2022-09-10T17:09:16.310Z,98015.06
2022-09-10T17:14:20.941Z,98022.00
2022-09-10T17:19:29.393Z,98027.28
2022-09-10T17:24:33.962Z,98022.03
2022-09-10T17:29:38.674Z,98021.84
2022-09-10T17:34:47.033Z,98029.38
2022-09-10T17:39:51.694Z,98041.91
2022-09-10T17:44:56.258Z,98044.22
2022-09-10T17:50:03.535Z,98044.81
2022-09-10T17:55:10.986Z,98053.78
2022-09-10T18:00:16.750Z,98056.47
2022-09-10T18:05:26.602Z,98053.47
2022-09-10T18:10:31.029Z,98058.69
2022-09-10T18:15:36.539Z,98065.38
2022-09-10T18:20:44.062Z,98069.31
2022-09-10T18:25:50.039Z,98074.72
2022-09-10T18:30:54.750Z,98085.38
2022-09-10T18:36:01.870Z,98082.03
2022-09-10T18:41:06.719Z,98101.03
2022-09-10T18:46:11.557Z,98100.19
2022-09-10T18:51:24.838Z,98105.00
2022-09-10T18:56:32.249Z,98102.88
2022-09-10T19:01:40.458Z,98098.50
2022-09-10T19:06:49.618Z,98101.38
2022-09-10T19:11:55.970Z,98109.94
2022-09-10T19:17:02.193Z,98109.31
2022-09-10T19:22:10.683Z,98112.03
2022-09-10T19:27:16.576Z,98116.81
2022-09-10T19:32:22.456Z,98120.34
2022-09-10T19:37:29.533Z,98120.56
2022-09-10T19:42:34.086Z,98121.59
2022-09-10T19:47:38.636Z,98126.59
2022-09-10T19:52:45.688Z,98129.69
2022-09-10T19:57:50.556Z,98130.94
2022-09-10T20:02:55.068Z,98128.44
2022-09-10T20:08:02.216Z,98129.25
2022-09-10T20:13:08.441Z,98124.44
2022-09-10T20:18:13.491Z,98122.09
2022-09-10T20:23:21.086Z,98119.59
2022-09-10T20:28:25.739Z,98124.13
2022-09-10T20:33:30.277Z,98120.81
2022-09-10T20:38:37.565Z,98125.97
2022-09-10T20:43:43.832Z,98123.63
2022-09-10T20:48:49.502Z,98128.44
2022-09-10T20:53:56.664Z,98127.81
2022-09-10T20:59:02.040Z,98122.75
2022-09-10T21:04:06.905Z,98117.72
2022-09-10T21:09:14.936Z,98127.75
2022-09-10T21:14:21.257Z,98130.41
2022-09-10T21:19:26.380Z,98137.44
2022-09-10T21:24:33.428Z,98130.56
2022-09-10T21:29:38.031Z,98137.59
2022-09-10T21:34:42.795Z,98133.13
2022-09-10T21:39:50.034Z,98133.69
2022-09-10T21:44:54.744Z,98140.09
2022-09-10T21:49:59.587Z,98145.56
2022-09-10T21:55:07.105Z,98147.16
2022-09-10T22:00:15.647Z,98157.09
2022-09-10T22:05:20.289Z,98153.84
2022-09-10T22:10:29.573Z,98156.94
2022-09-10T22:15:34.376Z,98164.41
2022-09-10T22:20:39.652Z,98156.47
2022-09-10T22:25:46.636Z,98159.19
2022-09-10T22:30:51.211Z,98158.53
2022-09-10T22:35:56.134Z,98161.44
2022-09-10T22:41:07.750Z,98171.63
2022-09-10T22:46:13.017Z,98160.13
2022-09-10T22:51:19.535Z,98171.34
2022-09-10T22:56:28.891Z,98169.19
2022-09-10T23:01:37.114Z,98170.41
2022-09-10T23:06:42.219Z,98170.78
2022-09-10T23:11:49.539Z,98180.34
2022-09-10T23:16:54.576Z,98179.03
2022-09-10T23:21:59.084Z,98175.84
2022-09-10T23:27:06.600Z,98183.53
2022-09-10T23:32:11.170Z,98189.31
2022-09-10T23:37:17.039Z,98190.69
2022-09-10T23:42:24.076Z,98200.84
2022-09-10T23:47:28.534Z,98194.81
2022-09-10T23:52:33.164Z,98204.31
2022-09-10T23:57:40.617Z,98199.47
